createdAt,value
2023-01-23T00:02:02.113Z,19.90
2023-01-23T00:04:36.288Z,21.40
2023-01-23T00:07:10.269Z,20.70
2023-01-23T00:09:44.300Z,18.80
2023-01-23T00:12:18.195Z,19.50
2023-01-23T00:14:52.205Z,20.90
2023-01-23T00:17:28.440Z,21.20
2023-01-23T00:20:02.239Z,19.60
2023-01-23T00:22:35.956Z,22.40
2023-01-23T00:25:11.254Z,20.60
2023-01-23T00:27:44.849Z,21.10
2023-01-23T00:30:19.669Z,19.00
2023-01-23T00:32:53.510Z,20.80
2023-01-23T00:35:27.936Z,21.20
2023-01-23T00:38:02.072Z,20.70
2023-01-23T00:40:36.489Z,19.10
2023-01-23T00:43:10.357Z,21.70
2023-01-23T00:45:44.355Z,21.90
2023-01-23T00:48:20.529Z,21.40
2023-01-23T00:50:54.674Z,19.80
2023-01-23T00:53:28.968Z,20.60
2023-01-23T00:56:02.616Z,21.60
2023-01-23T00:58:36.700Z,20.70
2023-01-23T01:01:10.934Z,18.00
2023-01-23T01:03:47.112Z,19.40
2023-01-23T01:06:20.865Z,20.70
2023-01-23T01:08:54.950Z,21.20
2023-01-23T01:11:30.567Z,19.90
2023-01-23T01:14:06.736Z,19.90
2023-01-23T01:16:45.409Z,21.40
2023-01-23T01:19:20.710Z,21.70
2023-01-23T01:21:55.015Z,18.80
2023-01-23T01:24:29.300Z,20.50
2023-01-23T01:27:03.410Z,22.10
2023-01-23T01:29:37.483Z,21.40
2023-01-23T01:32:11.775Z,20.50
2023-01-23T01:34:45.778Z,21.10
2023-01-23T01:37:20.349Z,21.80
2023-01-23T01:39:54.063Z,22.10
2023-01-23T01:42:28.506Z,19.30
2023-01-23T01:45:04.765Z,23.00
2023-01-23T01:47:38.902Z,21.50
2023-01-23T01:50:13.693Z,20.80
2023-01-23T01:52:47.442Z,19.40
2023-01-23T01:55:22.119Z,20.80
2023-01-23T01:57:56.139Z,20.90
2023-01-23T02:00:30.255Z,22.40
2023-01-23T02:03:05.463Z,20.20
2023-01-23T02:05:45.214Z,20.70
2023-01-23T02:08:34.332Z,20.50
2023-01-23T02:11:08.938Z,22.90
2023-01-23T02:13:45.988Z,22.10
2023-01-23T02:16:30.098Z,20.00
2023-01-23T02:19:14.156Z,21.70
2023-01-23T02:21:51.059Z,22.50
2023-01-23T02:24:37.282Z,22.10
2023-01-23T02:27:11.835Z,18.70
2023-01-23T02:29:51.812Z,20.20
2023-01-23T02:32:26.989Z,20.80
2023-01-23T02:35:14.321Z,21.20
2023-01-23T02:37:54.619Z,19.50
2023-01-23T02:40:39.447Z,21.20
2023-01-23T02:43:20.056Z,21.90
2023-01-23T02:45:59.144Z,23.40
2023-01-23T02:48:33.331Z,19.00
2023-01-23T02:51:08.142Z,20.50
2023-01-23T02:53:42.728Z,21.20
2023-01-23T02:56:16.970Z,22.90
2023-01-23T02:59:08.527Z,19.30
2023-01-23T03:01:42.448Z,20.50
2023-01-23T03:04:16.176Z,21.50
2023-01-23T03:06:50.390Z,21.90
2023-01-23T03:09:24.916Z,18.80
2023-01-23T03:11:58.878Z,21.20
2023-01-23T03:14:34.882Z,22.10
2023-01-23T03:17:11.289Z,22.40
2023-01-23T03:19:44.907Z,20.80
2023-01-23T03:22:19.041Z,21.90
2023-01-23T03:24:53.454Z,22.00
2023-01-23T03:27:28.000Z,21.30
2023-01-23T03:30:16.149Z,19.30
2023-01-23T03:32:50.465Z,20.40
2023-01-23T03:35:24.525Z,21.60
2023-01-23T03:38:00.584Z,23.20
2023-01-23T03:40:57.278Z,19.80
2023-01-23T03:43:35.474Z,22.20
2023-01-23T03:46:09.356Z,21.90
2023-01-23T03:48:45.484Z,21.40
2023-01-23T03:59:03.294Z,21.70
2023-01-23T04:01:38.518Z,18.30
2023-01-23T04:04:12.282Z,19.40
2023-01-23T04:06:46.740Z,19.90
2023-01-23T04:09:22.849Z,20.20
2023-01-23T04:11:58.200Z,21.40
2023-01-23T04:14:37.558Z,20.30
2023-01-23T04:17:13.764Z,22.00
2023-01-23T04:19:48.221Z,22.20
2023-01-23T04:22:22.228Z,19.80
2023-01-23T04:24:57.453Z,20.30
2023-01-23T04:27:31.275Z,20.30
2023-01-23T04:30:05.723Z,22.90
2023-01-23T04:32:40.870Z,19.50
2023-01-23T04:35:15.520Z,19.50
2023-01-23T04:37:50.089Z,21.90
2023-01-23T04:40:24.514Z,21.40
2023-01-23T04:43:01.382Z,20.00
2023-01-23T04:45:41.850Z,20.00
2023-01-23T04:48:45.661Z,20.80
2023-01-23T04:51:20.426Z,21.60
2023-01-23T04:53:54.197Z,18.90
2023-01-23T04:56:29.314Z,21.90
2023-01-23T04:59:03.879Z,21.30
2023-01-23T05:01:37.923Z,21.20
2023-01-23T05:04:11.737Z,19.70
2023-01-23T05:06:45.537Z,20.60
2023-01-23T05:09:19.790Z,20.10
2023-01-23T05:11:57.990Z,21.00
2023-01-23T05:14:32.242Z,18.90
2023-01-23T05:17:06.937Z,20.90
2023-01-23T05:19:48.629Z,20.60
2023-01-23T05:22:22.897Z,22.00
2023-01-23T05:24:57.517Z,18.60
2023-01-23T05:27:32.900Z,20.90
2023-01-23T05:30:08.824Z,22.00
2023-01-23T05:32:43.109Z,19.90
2023-01-23T05:35:22.949Z,19.00
2023-01-23T05:37:57.576Z,20.30
2023-01-23T05:40:31.464Z,20.10
2023-01-23T05:43:24.035Z,20.20
2023-01-23T05:46:27.143Z,19.50
2023-01-23T05:49:01.065Z,19.50
2023-01-23T05:51:35.067Z,19.70
2023-01-23T05:54:09.236Z,19.80
2023-01-23T05:56:43.870Z,19.40
2023-01-23T05:59:36.463Z,20.30
2023-01-23T06:02:40.088Z,21.40
2023-01-23T06:05:46.228Z,22.00
2023-01-23T06:08:24.291Z,18.80
2023-01-23T06:11:00.752Z,20.60
2023-01-23T06:13:35.100Z,19.10
2023-01-23T06:16:11.007Z,19.60
2023-01-23T06:18:45.030Z,18.40
2023-01-23T06:21:19.138Z,21.00
2023-01-23T06:23:53.065Z,16.80
2023-01-23T06:26:27.671Z,17.90
2023-01-23T06:29:03.157Z,18.20
2023-01-23T06:31:37.557Z,19.40
2023-01-23T06:34:11.856Z,18.80
2023-01-23T06:36:49.900Z,19.40
2023-01-23T06:39:23.676Z,17.80
2023-01-23T06:41:58.449Z,17.90
2023-01-23T06:44:32.519Z,20.00
2023-01-23T06:47:07.189Z,18.30
2023-01-23T06:49:41.314Z,17.90
2023-01-23T06:52:15.790Z,17.90
2023-01-23T06:54:49.821Z,19.40
2023-01-23T06:57:23.991Z,18.30
2023-01-23T06:59:58.009Z,18.10
2023-01-23T07:02:32.095Z,18.40
2023-01-23T07:05:07.111Z,19.40
2023-01-23T07:07:42.899Z,17.90
2023-01-23T07:10:16.894Z,16.50
2023-01-23T07:12:51.691Z,19.10
2023-01-23T07:15:25.968Z,19.20
2023-01-23T07:17:59.772Z,17.50
2023-01-23T07:20:34.142Z,17.50
2023-01-23T07:23:10.121Z,17.40
2023-01-23T07:25:44.534Z,16.60
2023-01-23T07:28:18.675Z,17.40
2023-01-23T07:30:55.163Z,17.10
2023-01-23T07:33:29.764Z,17.20
2023-01-23T07:36:05.801Z,17.40
2023-01-23T07:38:40.067Z,17.60
2023-01-23T07:41:14.358Z,16.20
2023-01-23T07:43:48.528Z,17.10
2023-01-23T07:46:23.961Z,18.10
2023-01-23T07:48:57.773Z,17.60
2023-01-23T07:51:31.758Z,19.90
2023-01-23T07:54:06.511Z,18.90
2023-01-23T07:56:40.703Z,17.40
2023-01-23T07:59:17.941Z,16.70
2023-01-23T08:01:52.809Z,16.40
2023-01-23T08:04:27.050Z,18.20
2023-01-23T08:07:02.363Z,16.10
2023-01-23T08:09:36.104Z,16.50
2023-01-23T08:12:10.855Z,17.80
2023-01-23T08:14:46.736Z,17.50
2023-01-23T08:17:21.179Z,18.30
2023-01-23T08:19:55.931Z,18.60
2023-01-23T08:22:29.982Z,18.10
2023-01-23T08:25:03.896Z,16.70
2023-01-23T08:27:37.839Z,17.00
2023-01-23T08:30:14.635Z,18.20
2023-01-23T08:32:49.976Z,16.50
2023-01-23T08:35:27.277Z,16.80
2023-01-23T08:38:02.758Z,17.70
2023-01-23T08:40:37.269Z,18.20
2023-01-23T08:43:14.486Z,17.30
2023-01-23T08:45:55.388Z,17.10
2023-01-23T08:48:30.890Z,19.10
2023-01-23T08:51:07.648Z,17.70
2023-01-23T08:53:42.312Z,16.50
2023-01-23T08:56:20.968Z,18.30
2023-01-23T08:58:55.425Z,18.30
2023-01-23T09:01:30.707Z,19.20
2023-01-23T09:04:04.600Z,18.90
2023-01-23T09:06:40.026Z,20.00
2023-01-23T09:09:14.284Z,18.30
2023-01-23T09:11:49.303Z,18.70
2023-01-23T09:14:23.250Z,18.30
2023-01-23T09:16:57.633Z,19.50
2023-01-23T09:19:34.157Z,19.00
2023-01-23T09:22:08.321Z,20.40
2023-01-23T09:24:42.125Z,19.80
2023-01-23T09:27:16.237Z,18.90
2023-01-23T09:29:50.563Z,19.30
2023-01-23T09:32:24.603Z,19.80
2023-01-23T09:34:58.495Z,19.20
2023-01-23T09:37:58.514Z,18.50
2023-01-23T09:40:36.974Z,18.80
2023-01-23T09:43:24.854Z,19.70
2023-01-23T09:46:09.077Z,19.20
2023-01-23T09:48:48.923Z,18.40
2023-01-23T09:51:30.605Z,20.20
2023-01-23T09:54:17.453Z,18.80
2023-01-23T09:56:55.590Z,19.60
2023-01-23T09:59:50.271Z,18.00
2023-01-23T10:02:29.131Z,19.80
2023-01-23T10:05:04.402Z,20.00
2023-01-23T10:07:59.457Z,19.70
2023-01-23T10:10:57.993Z,19.20
2023-01-23T10:13:54.065Z,19.90
2023-01-23T10:17:00.194Z,20.40
2023-01-23T10:20:02.354Z,19.20
2023-01-23T10:22:48.563Z,20.30
2023-01-23T10:25:26.536Z,20.80
2023-01-23T10:28:20.459Z,21.70
2023-01-23T10:31:00.498Z,20.00
2023-01-23T10:33:47.151Z,21.00
2023-01-23T10:36:42.077Z,21.40
2023-01-23T10:39:30.985Z,22.40
2023-01-23T10:42:07.100Z,21.00
2023-01-23T10:44:40.922Z,19.90
2023-01-23T10:47:29.884Z,21.60
2023-01-23T10:50:11.991Z,21.50
2023-01-23T10:52:48.224Z,20.90
2023-01-23T10:55:33.857Z,21.50
2023-01-23T10:58:24.145Z,21.70
2023-01-23T11:00:58.386Z,21.00
2023-01-23T11:03:37.404Z,21.40
2023-01-23T11:06:19.443Z,22.00
2023-01-23T11:09:00.594Z,20.50
2023-01-23T11:11:36.358Z,21.90
2023-01-23T11:14:16.994Z,22.80
2023-01-23T11:17:03.409Z,20.70
2023-01-23T11:19:40.162Z,21.30
2023-01-23T11:22:32.668Z,22.50
2023-01-23T11:25:32.185Z,21.10
2023-01-23T11:28:27.429Z,21.10
2023-01-23T11:31:14.589Z,23.60
2023-01-23T11:34:01.522Z,22.90
2023-01-23T11:36:54.828Z,23.00
2023-01-23T11:39:46.503Z,22.40
2023-01-23T11:42:22.365Z,22.20
2023-01-23T11:44:57.484Z,20.10
2023-01-23T11:47:59.370Z,19.70
2023-01-23T11:50:54.892Z,20.20
2023-01-23T11:53:43.416Z,20.50
2023-01-23T11:56:54.147Z,19.70
2023-01-23T12:00:00.553Z,19.60
2023-01-23T12:03:27.905Z,20.40
2023-01-23T12:06:29.753Z,20.60
2023-01-23T12:09:14.724Z,19.90
2023-01-23T12:12:11.017Z,20.20
2023-01-23T12:14:58.711Z,21.50
2023-01-23T12:17:43.940Z,18.60
2023-01-23T12:20:38.895Z,19.60
2023-01-23T12:23:47.592Z,19.30
2023-01-23T12:26:25.496Z,19.00
2023-01-23T12:29:23.718Z,18.70
2023-01-23T12:32:26.104Z,17.90
2023-01-23T12:35:23.464Z,19.50
2023-01-23T12:38:18.275Z,19.00
2023-01-23T12:41:03.933Z,19.00
2023-01-23T12:43:47.132Z,18.60
2023-01-23T12:46:28.017Z,17.40
2023-01-23T12:49:20.059Z,19.60
2023-01-23T12:52:00.595Z,19.70
2023-01-23T12:54:44.198Z,18.80
2023-01-23T12:57:52.790Z,19.00
2023-01-23T13:00:59.622Z,18.10
2023-01-23T13:04:10.793Z,18.20
2023-01-23T13:07:03.110Z,19.30
2023-01-23T13:09:59.979Z,18.60
2023-01-23T13:12:35.354Z,19.10
2023-01-23T13:15:40.770Z,19.10
2023-01-23T13:18:29.630Z,18.40
2023-01-23T13:21:29.712Z,19.10
2023-01-23T13:24:58.736Z,20.10
2023-01-23T13:27:59.072Z,19.30
2023-01-23T13:31:02.528Z,18.60
2023-01-23T13:33:58.670Z,19.50
2023-01-23T13:36:40.493Z,19.40
2023-01-23T13:39:30.748Z,18.90
2023-01-23T13:42:38.247Z,19.30
2023-01-23T13:45:35.978Z,21.40
2023-01-23T14:22:13.666Z,22.50
2023-01-23T14:24:51.130Z,20.20
2023-01-23T14:27:44.394Z,20.70
2023-01-23T14:30:30.413Z,21.30
2023-01-23T14:33:12.060Z,20.40
2023-01-23T14:35:48.952Z,21.20
2023-01-23T14:38:34.641Z,22.50
2023-01-23T14:41:12.466Z,23.00
2023-01-23T14:43:47.606Z,22.10
2023-01-23T14:46:33.894Z,22.30
2023-01-23T14:49:12.386Z,22.50
2023-01-23T14:52:01.254Z,23.40
2023-01-23T14:54:38.023Z,23.00
2023-01-23T14:57:14.595Z,22.90
2023-01-23T14:59:50.488Z,21.90
2023-01-23T15:02:36.947Z,22.30
2023-01-23T15:05:27.113Z,23.60
2023-01-23T15:08:06.399Z,24.30
2023-01-23T15:10:51.880Z,24.10
2023-01-23T15:13:34.034Z,25.40
2023-01-23T15:16:17.512Z,22.80
2023-01-23T15:19:01.539Z,23.60
2023-01-23T15:21:41.129Z,25.30
2023-01-23T15:24:31.425Z,25.10
2023-01-23T15:27:27.134Z,24.10
2023-01-23T15:30:38.832Z,25.30
2023-01-23T15:33:31.364Z,25.90
2023-01-23T15:36:18.487Z,26.20
2023-01-23T15:38:52.796Z,23.70
2023-01-23T15:41:47.680Z,28.40
2023-01-23T15:44:24.089Z,27.10
2023-01-23T15:47:01.277Z,26.10
2023-01-23T15:49:37.332Z,26.20
2023-01-23T15:52:25.101Z,27.30
2023-01-23T15:55:08.441Z,26.60
2023-01-23T15:57:43.656Z,28.10
2023-01-23T16:00:24.792Z,24.00
2023-01-23T16:03:00.323Z,25.30
2023-01-23T16:05:38.118Z,28.20
2023-01-23T16:08:23.176Z,27.40
2023-01-23T16:10:59.902Z,29.30
2023-01-23T16:13:33.877Z,26.30
2023-01-23T16:16:14.760Z,28.00
2023-01-23T16:18:48.851Z,29.20
2023-01-23T16:21:29.891Z,27.70
2023-01-23T16:24:05.867Z,27.70
2023-01-23T16:26:40.710Z,26.00
2023-01-23T16:29:27.921Z,27.40
2023-01-23T16:32:04.287Z,28.20
2023-01-23T16:34:38.634Z,28.10
2023-01-23T16:37:18.717Z,24.90
2023-01-23T16:39:54.267Z,26.70
2023-01-23T16:42:31.161Z,27.40
2023-01-23T16:45:10.987Z,27.00
2023-01-23T16:47:44.755Z,25.30
2023-01-23T16:50:23.976Z,26.70
2023-01-23T16:53:07.322Z,29.40
2023-01-23T16:55:46.648Z,28.10
2023-01-23T16:58:25.194Z,24.90
2023-01-23T17:01:06.038Z,27.20
2023-01-23T17:03:43.176Z,27.50
2023-01-23T17:06:19.277Z,29.20
2023-01-23T17:08:53.731Z,25.30
2023-01-23T17:11:31.294Z,27.30
2023-01-23T17:14:11.115Z,26.50
2023-01-23T17:16:46.023Z,27.50
2023-01-23T17:19:29.870Z,27.40
2023-01-23T17:22:06.642Z,25.00
2023-01-23T17:24:40.424Z,27.50
2023-01-23T17:27:14.271Z,26.60
2023-01-23T17:29:49.302Z,26.40
2023-01-23T17:32:35.457Z,25.80
2023-01-23T17:35:22.856Z,25.10
2023-01-23T17:37:58.140Z,26.20
2023-01-23T17:40:32.302Z,27.90
2023-01-23T17:43:06.160Z,26.30
2023-01-23T17:45:40.615Z,27.20
2023-01-23T17:48:19.443Z,25.70
2023-01-23T17:50:53.294Z,27.90
2023-01-23T17:53:28.131Z,25.70
2023-01-23T17:56:01.949Z,24.10
2023-01-23T17:58:35.958Z,25.70
2023-01-23T18:01:22.099Z,26.60
2023-01-23T18:03:56.851Z,27.80
2023-01-23T18:06:30.871Z,28.30
2023-01-23T18:09:06.084Z,25.70
2023-01-23T18:11:41.466Z,28.70
2023-01-23T18:14:38.360Z,26.50
2023-01-23T18:17:30.255Z,28.30
2023-01-23T18:20:13.245Z,24.60
2023-01-23T18:22:50.687Z,24.60
2023-01-23T18:25:27.279Z,27.20
2023-01-23T18:28:10.424Z,24.90
2023-01-23T18:31:00.357Z,23.60
2023-01-23T18:33:55.998Z,24.10
2023-01-23T18:36:50.248Z,24.30
2023-01-23T18:39:44.108Z,24.40
2023-01-23T18:42:30.482Z,23.00
2023-01-23T18:45:16.521Z,25.10
2023-01-23T18:47:53.736Z,25.40
2023-01-23T18:50:30.119Z,24.70
2023-01-23T18:53:20.324Z,24.50
2023-01-23T18:56:14.397Z,24.70
2023-01-23T18:59:13.342Z,25.40
2023-01-23T19:01:59.989Z,25.30
2023-01-23T19:04:46.031Z,24.40
2023-01-23T19:07:22.957Z,25.00
2023-01-23T19:09:59.077Z,25.80
2023-01-23T19:12:48.580Z,24.00
2023-01-23T19:15:34.947Z,23.50
2023-01-23T19:18:39.151Z,25.00
2023-01-23T19:21:23.577Z,23.70
2023-01-23T19:24:07.195Z,24.50
2023-01-23T19:26:44.618Z,22.50
2023-01-23T19:29:23.330Z,23.40
2023-01-23T19:32:05.059Z,24.20
2023-01-23T19:34:40.125Z,26.40
2023-01-23T19:37:14.987Z,23.30
2023-01-23T19:39:49.307Z,24.00
2023-01-23T19:42:23.382Z,24.20
2023-01-23T19:44:57.983Z,25.20
2023-01-23T19:47:35.222Z,23.40
2023-01-23T19:50:15.854Z,25.20
2023-01-23T19:52:52.547Z,24.10
2023-01-23T19:55:30.872Z,24.70
2023-01-23T19:58:05.724Z,21.50
2023-01-23T20:00:40.412Z,23.40
2023-01-23T20:03:15.931Z,25.50
2023-01-23T20:05:50.218Z,24.30
2023-01-23T20:08:24.218Z,26.00
2023-01-23T20:10:58.466Z,25.40
2023-01-23T20:13:32.455Z,25.40
2023-01-23T20:16:18.520Z,25.50
2023-01-23T20:18:54.528Z,22.20
2023-01-23T20:21:30.950Z,24.80
2023-01-23T20:24:07.244Z,25.20
2023-01-23T20:26:41.634Z,22.50
2023-01-23T20:29:17.222Z,23.40
2023-01-23T20:31:51.408Z,23.90
2023-01-23T20:34:25.774Z,23.30
2023-01-23T20:36:59.944Z,23.60
2023-01-23T20:39:33.840Z,23.40
2023-01-23T20:42:10.571Z,25.20
2023-01-23T20:44:44.646Z,25.20
2023-01-23T20:47:18.667Z,25.20
2023-01-23T20:49:52.612Z,23.10
2023-01-23T20:52:44.085Z,23.40
2023-01-23T20:55:18.496Z,24.90
2023-01-23T20:58:10.120Z,24.30
2023-01-23T21:00:46.422Z,21.10
2023-01-23T21:03:20.198Z,22.70
2023-01-23T21:05:54.436Z,24.70
2023-01-23T21:08:28.637Z,22.90
2023-01-23T21:11:07.165Z,23.20
2023-01-23T21:13:41.813Z,22.30
2023-01-23T21:16:18.492Z,23.60
2023-01-23T21:18:53.881Z,22.70
2023-01-23T21:21:27.990Z,24.30
2023-01-23T21:24:01.804Z,22.20
2023-01-23T21:26:36.072Z,24.20
2023-01-23T21:29:11.010Z,22.60
2023-01-23T21:31:45.448Z,21.80
2023-01-23T21:34:19.752Z,21.70
2023-01-23T21:36:53.992Z,23.60
2023-01-23T21:39:27.991Z,22.40
2023-01-23T21:42:01.873Z,23.10
2023-01-23T21:44:35.886Z,21.50
2023-01-23T21:47:10.125Z,20.00
2023-01-23T21:49:45.321Z,24.80
2023-01-23T21:52:19.289Z,24.80
2023-01-23T21:54:55.967Z,22.90
2023-01-23T21:57:30.209Z,21.80
2023-01-23T22:00:21.900Z,22.00
2023-01-23T22:02:56.086Z,22.30
2023-01-23T22:05:30.011Z,22.70
2023-01-23T22:08:03.929Z,22.30
2023-01-23T22:10:38.108Z,21.30
2023-01-23T22:13:11.954Z,22.40
2023-01-23T22:15:45.787Z,22.50
2023-01-23T22:18:19.775Z,22.70
2023-01-23T22:20:59.478Z,21.90
2023-01-23T22:23:34.075Z,21.60
2023-01-23T22:26:10.757Z,20.90
2023-01-23T22:28:44.929Z,23.30
2023-01-23T22:31:20.438Z,22.50
2023-01-23T22:33:54.280Z,22.20
2023-01-23T22:36:28.706Z,23.00
2023-01-23T22:39:02.731Z,24.60
2023-01-23T22:41:36.704Z,23.90
2023-01-23T22:44:10.421Z,23.00
2023-01-23T22:46:44.491Z,21.90
2023-01-23T22:49:18.775Z,22.60
2023-01-23T22:51:52.733Z,24.10
2023-01-23T22:54:26.799Z,24.20
2023-01-23T22:57:00.383Z,24.80
2023-01-23T22:59:34.203Z,23.20
2023-01-23T23:02:08.095Z,25.00
2023-01-23T23:04:42.346Z,23.60
2023-01-23T23:07:16.980Z,24.20
2023-01-23T23:09:50.978Z,22.80
2023-01-23T23:12:29.447Z,24.90
2023-01-23T23:15:04.040Z,26.20
2023-01-23T23:17:38.250Z,24.40
2023-01-23T23:20:14.544Z,30.50
2023-01-23T23:22:48.431Z,25.40
2023-01-23T23:25:22.982Z,22.40
2023-01-23T23:27:57.205Z,25.50
2023-01-23T23:30:31.200Z,25.60
2023-01-23T23:33:05.048Z,26.10
2023-01-23T23:35:39.051Z,23.20
2023-01-23T23:38:14.032Z,25.00
2023-01-23T23:40:56.979Z,26.10
2023-01-23T23:54:37.252Z,26.70
2023-01-23T23:57:12.556Z,27.50
2023-01-23T23:59:46.260Z,25.50
